createdAt,value
2023-02-19T00:00:49.270Z,7.50
2023-02-19T00:03:23.197Z,7.80
2023-02-19T00:05:38.595Z,8.10
2023-02-19T00:07:51.805Z,8.60
2023-02-19T00:10:04.883Z,9.70
2023-02-19T00:12:17.820Z,8.70
2023-02-19T00:14:30.935Z,6.50
2023-02-19T00:16:44.537Z,5.40
2023-02-19T00:18:59.639Z,7.90
2023-02-19T00:21:13.134Z,7.00
2023-02-19T00:23:26.111Z,9.60
2023-02-19T00:25:42.346Z,6.20
2023-02-19T00:27:55.564Z,7.70
2023-02-19T00:30:10.267Z,6.50
2023-02-19T00:32:23.700Z,10.70
2023-02-19T00:34:36.888Z,9.00
2023-02-19T00:36:50.788Z,9.20
2023-02-19T00:39:04.812Z,9.30
2023-02-19T00:41:22.266Z,9.50
2023-02-19T00:43:36.558Z,8.30
2023-02-19T00:45:50.561Z,6.70
2023-02-19T00:48:04.999Z,9.50
2023-02-19T00:50:18.564Z,6.30
2023-02-19T00:52:32.690Z,7.40
2023-02-19T00:54:45.921Z,8.50
2023-02-19T00:56:58.940Z,7.90
2023-02-19T00:59:13.053Z,6.50
2023-02-19T01:01:26.646Z,6.30
2023-02-19T01:03:40.415Z,6.50
2023-02-19T01:05:53.616Z,7.10
2023-02-19T01:08:07.167Z,6.90
2023-02-19T01:10:22.155Z,5.60
2023-02-19T01:12:35.348Z,6.00
2023-02-19T01:14:48.694Z,7.10
2023-02-19T01:17:02.015Z,8.30
2023-02-19T01:19:15.994Z,6.20
2023-02-19T01:21:32.257Z,7.20
2023-02-19T01:23:45.537Z,6.20
2023-02-19T01:25:58.513Z,7.00
2023-02-19T01:28:12.094Z,8.70
2023-02-19T01:30:26.039Z,7.90
2023-02-19T01:32:39.588Z,7.60
2023-02-19T01:34:52.653Z,7.50
2023-02-19T01:37:06.894Z,8.60
2023-02-19T01:39:20.484Z,9.00
2023-02-19T01:41:34.404Z,9.10
2023-02-19T01:46:34.447Z,6.40
2023-02-19T01:48:47.959Z,5.90
2023-02-19T01:51:07.232Z,5.90
2023-02-19T01:53:25.231Z,6.30
2023-02-19T01:55:39.616Z,7.00
2023-02-19T01:57:58.215Z,6.60
2023-02-19T02:00:18.000Z,7.10
2023-02-19T02:02:32.875Z,7.00
2023-02-19T02:04:48.962Z,6.60
2023-02-19T02:07:04.468Z,6.40
2023-02-19T02:09:36.080Z,8.50
2023-02-19T02:11:55.088Z,5.10
2023-02-19T02:14:09.688Z,5.50
2023-02-19T02:16:33.262Z,13.30
2023-02-19T02:18:58.680Z,17.20
2023-02-19T02:21:29.918Z,10.20
2023-02-19T02:24:10.560Z,7.70
2023-02-19T02:26:48.849Z,7.70
2023-02-19T02:29:39.969Z,10.60
2023-02-19T02:32:00.213Z,12.40
2023-02-19T02:34:19.920Z,10.20
2023-02-19T02:36:39.434Z,18.30
2023-02-19T02:38:55.644Z,20.80
2023-02-19T02:41:10.468Z,22.00
2023-02-19T02:43:25.274Z,18.80
2023-02-19T02:45:41.247Z,17.60
2023-02-19T02:48:36.199Z,16.10
2023-02-19T02:50:54.488Z,12.60
2023-02-19T02:53:28.241Z,11.70
2023-02-19T02:55:45.830Z,11.80
2023-02-19T02:58:00.929Z,9.50
2023-02-19T03:00:17.243Z,7.90
2023-02-19T03:02:35.629Z,7.00
2023-02-19T03:05:14.604Z,8.90
2023-02-19T03:07:31.519Z,7.30
2023-02-19T03:09:49.648Z,6.00
2023-02-19T03:12:23.679Z,7.90
2023-02-19T03:14:58.569Z,10.20
2023-02-19T03:17:48.433Z,7.10
2023-02-19T03:20:13.953Z,7.60
2023-02-19T03:22:33.608Z,9.80
2023-02-19T03:25:11.877Z,7.60
2023-02-19T03:27:30.428Z,7.20
2023-02-19T03:29:47.681Z,7.20
2023-02-19T03:32:06.622Z,8.20
2023-02-19T03:34:28.490Z,7.80
2023-02-19T03:36:55.285Z,8.50
2023-02-19T03:39:12.077Z,6.80
2023-02-19T03:41:35.915Z,7.70
2023-02-19T03:43:57.336Z,8.30
2023-02-19T03:46:17.915Z,7.80
2023-02-19T03:48:37.895Z,8.00
2023-02-19T03:51:00.793Z,7.40
2023-02-19T03:53:22.021Z,7.40
2023-02-19T03:55:47.005Z,5.30
2023-02-19T03:58:11.363Z,7.40
2023-02-19T04:00:30.669Z,10.40
2023-02-19T04:02:49.074Z,11.20
2023-02-19T04:05:11.326Z,10.20
2023-02-19T04:07:27.593Z,8.70
2023-02-19T04:09:45.099Z,5.90
2023-02-19T04:12:03.740Z,6.90
2023-02-19T04:14:23.343Z,5.70
2023-02-19T04:16:39.510Z,6.00
2023-02-19T04:18:57.960Z,7.00
2023-02-19T04:21:12.964Z,8.70
2023-02-19T04:23:29.969Z,11.10
2023-02-19T04:25:46.300Z,14.00
2023-02-19T04:28:00.125Z,10.80
2023-02-19T04:30:17.139Z,10.60
2023-02-19T04:32:31.328Z,7.80
2023-02-19T04:34:45.328Z,17.00
2023-02-19T04:36:59.586Z,12.60
2023-02-19T04:39:18.320Z,18.10
2023-02-19T04:41:34.687Z,11.90
2023-02-19T04:43:48.936Z,12.20
2023-02-19T04:46:15.985Z,8.20
2023-02-19T04:48:32.644Z,13.40
2023-02-19T04:50:49.711Z,12.50
2023-02-19T04:53:03.954Z,14.40
2023-02-19T04:55:17.625Z,19.60
2023-02-19T04:57:31.597Z,14.90
2023-02-19T04:59:45.913Z,6.90
2023-02-19T05:02:01.057Z,34.60
2023-02-19T05:04:15.203Z,19.00
2023-02-19T05:06:29.546Z,15.30
2023-02-19T05:08:44.594Z,10.40
2023-02-19T05:11:00.984Z,13.50
2023-02-19T05:13:14.432Z,16.40
2023-02-19T05:15:33.773Z,11.70
2023-02-19T05:17:50.495Z,10.60
2023-02-19T05:20:05.036Z,10.20
2023-02-19T05:22:23.197Z,15.80
2023-02-19T05:24:38.245Z,17.80
2023-02-19T05:26:53.720Z,18.20
2023-02-19T05:29:07.706Z,15.60
2023-02-19T05:31:22.130Z,14.20
2023-02-19T05:33:40.256Z,13.50
2023-02-19T05:35:57.954Z,12.70
2023-02-19T05:38:13.914Z,13.50
2023-02-19T05:40:27.354Z,11.50
2023-02-19T05:42:43.754Z,14.10
2023-02-19T05:44:57.393Z,7.30
2023-02-19T05:47:10.667Z,6.60
2023-02-19T05:49:24.644Z,6.70
2023-02-19T05:51:39.280Z,7.50
2023-02-19T05:53:54.226Z,4.90
2023-02-19T05:56:07.700Z,5.10
2023-02-19T05:58:23.003Z,6.70
2023-02-19T06:00:36.554Z,6.80
2023-02-19T06:02:50.793Z,5.70
2023-02-19T06:05:04.034Z,5.90
2023-02-19T06:07:17.435Z,6.70
2023-02-19T06:09:30.734Z,7.70
2023-02-19T06:11:45.444Z,8.70
2023-02-19T06:13:59.515Z,7.40
2023-02-19T06:16:14.270Z,8.70
2023-02-19T06:18:27.854Z,9.30
2023-02-19T06:20:41.613Z,9.80
2023-02-19T06:22:56.594Z,10.50
2023-02-19T06:25:14.084Z,8.60
2023-02-19T06:27:30.311Z,5.70
2023-02-19T06:29:43.898Z,5.10
2023-02-19T06:31:58.045Z,5.60
2023-02-19T06:34:12.938Z,6.10
2023-02-19T06:36:28.018Z,8.80
2023-02-19T06:38:42.093Z,8.20
2023-02-19T06:40:57.010Z,13.80
2023-02-19T06:43:10.190Z,9.80
2023-02-19T06:45:24.243Z,5.40
2023-02-19T06:47:39.874Z,10.00
2023-02-19T06:49:53.801Z,6.60
2023-02-19T06:52:08.021Z,5.40
2023-02-19T06:54:21.331Z,3.90
2023-02-19T06:56:37.452Z,4.50
2023-02-19T06:58:51.261Z,3.80
2023-02-19T07:01:04.811Z,7.40
2023-02-19T07:03:18.004Z,5.40
2023-02-19T07:05:31.131Z,5.80
2023-02-19T07:07:44.219Z,6.70
2023-02-19T07:09:57.827Z,5.50
2023-02-19T07:12:12.566Z,5.10
2023-02-19T07:14:26.046Z,5.00
2023-02-19T07:16:40.478Z,3.90
2023-02-19T07:18:54.103Z,4.40
2023-02-19T07:21:11.982Z,4.70
2023-02-19T07:23:25.385Z,4.00
2023-02-19T07:25:38.565Z,3.90
2023-02-19T07:27:51.777Z,3.30
2023-02-19T07:30:06.190Z,4.80
2023-02-19T07:32:21.339Z,5.10
2023-02-19T07:34:36.324Z,4.00
2023-02-19T07:36:50.554Z,3.80
2023-02-19T07:39:04.647Z,4.00
2023-02-19T07:41:18.047Z,4.60
2023-02-19T07:43:38.925Z,4.00
2023-02-19T07:45:52.656Z,3.60
2023-02-19T07:48:06.189Z,2.90
2023-02-19T07:50:18.529Z,3.60
2023-02-19T07:52:32.182Z,3.80
2023-02-19T07:54:46.071Z,3.70
2023-02-19T07:56:59.350Z,3.00
2023-02-19T07:59:12.924Z,2.40
2023-02-19T08:01:50.391Z,2.60
2023-02-19T08:04:04.644Z,3.40
2023-02-19T08:06:18.740Z,3.20
2023-02-19T08:08:32.441Z,4.70
2023-02-19T08:11:02.043Z,2.50
2023-02-19T08:13:26.347Z,2.90
2023-02-19T08:15:41.084Z,4.30
2023-02-19T08:17:54.206Z,3.90
2023-02-19T08:20:09.703Z,2.40
2023-02-19T08:22:22.597Z,3.70
2023-02-19T08:24:36.333Z,3.30
2023-02-19T08:26:49.669Z,3.00
2023-02-19T08:29:02.665Z,2.80
2023-02-19T08:31:17.349Z,2.30
2023-02-19T08:33:30.978Z,3.30
2023-02-19T08:35:45.108Z,3.60
2023-02-19T08:38:01.796Z,3.40
2023-02-19T08:40:16.558Z,4.90
2023-02-19T08:42:31.539Z,5.40
2023-02-19T08:44:44.818Z,5.80
2023-02-19T08:46:58.437Z,4.70
2023-02-19T08:49:11.396Z,3.80
2023-02-19T08:51:24.926Z,3.80
2023-02-19T08:53:39.690Z,3.60
2023-02-19T08:55:52.780Z,3.90
2023-02-19T08:58:06.225Z,3.60
2023-02-19T09:00:20.665Z,3.80
2023-02-19T09:02:34.113Z,3.40
2023-02-19T09:04:47.544Z,3.20
2023-02-19T09:07:01.955Z,3.10
2023-02-19T09:09:15.313Z,4.10
2023-02-19T09:11:28.219Z,3.90
2023-02-19T09:13:43.054Z,5.80
2023-02-19T09:15:55.997Z,3.50
2023-02-19T09:18:09.094Z,5.10
2023-02-19T09:20:22.646Z,5.40
2023-02-19T09:22:36.254Z,4.80
2023-02-19T09:24:49.417Z,3.70
2023-02-19T09:27:03.008Z,3.60
2023-02-19T09:29:16.628Z,3.40
2023-02-19T09:31:29.687Z,4.30
2023-02-19T09:33:45.529Z,5.20
2023-02-19T09:36:02.000Z,5.00
2023-02-19T09:38:14.959Z,3.90
2023-02-19T09:40:28.416Z,3.80
2023-02-19T09:42:43.458Z,5.00
2023-02-19T09:44:59.588Z,3.50
2023-02-19T09:47:19.130Z,3.90
2023-02-19T09:49:35.825Z,3.10
2023-02-19T09:51:51.545Z,3.20
2023-02-19T09:54:05.549Z,4.20
2023-02-19T09:56:19.656Z,3.40
2023-02-19T09:58:38.525Z,3.90
2023-02-19T10:00:54.526Z,5.00
2023-02-19T10:03:14.342Z,3.30
2023-02-19T10:05:29.534Z,3.80
2023-02-19T10:07:46.925Z,2.80
2023-02-19T10:10:04.256Z,3.50
2023-02-19T10:12:22.750Z,4.50
2023-02-19T10:14:43.843Z,5.20
2023-02-19T10:16:56.934Z,3.40
2023-02-19T10:19:13.018Z,3.60
2023-02-19T10:21:28.333Z,3.40
2023-02-19T10:23:43.045Z,2.70
2023-02-19T10:25:59.776Z,2.70
2023-02-19T10:28:18.244Z,4.10
2023-02-19T10:30:35.519Z,4.00
2023-02-19T10:33:05.339Z,4.60
2023-02-19T10:35:21.174Z,3.20
2023-02-19T10:37:34.566Z,4.00
2023-02-19T10:39:50.302Z,3.70
2023-02-19T10:42:03.766Z,3.80
2023-02-19T10:44:22.252Z,3.10
2023-02-19T10:46:39.058Z,2.60
2023-02-19T10:48:56.681Z,4.00
2023-02-19T10:51:14.433Z,4.40
2023-02-19T10:53:39.281Z,3.10
2023-02-19T10:55:52.416Z,4.20
2023-02-19T10:58:28.266Z,3.30
2023-02-19T11:00:42.035Z,2.90
2023-02-19T11:03:15.309Z,2.90
2023-02-19T11:05:29.784Z,3.20
2023-02-19T11:07:47.530Z,3.20
2023-02-19T11:10:02.025Z,2.90
2023-02-19T11:12:16.334Z,2.60
2023-02-19T11:14:31.435Z,2.80
2023-02-19T11:16:50.189Z,2.60
2023-02-19T11:19:04.441Z,2.80
2023-02-19T11:21:34.310Z,3.40
2023-02-19T11:23:51.864Z,2.60
2023-02-19T11:26:08.550Z,3.10
2023-02-19T11:28:33.434Z,2.90
2023-02-19T11:30:48.576Z,3.40
2023-02-19T11:33:16.856Z,3.60
2023-02-19T11:35:33.373Z,3.50
2023-02-19T11:38:01.118Z,3.20
2023-02-19T11:40:19.336Z,3.60
2023-02-19T11:42:44.358Z,3.30
2023-02-19T11:45:17.137Z,3.20
2023-02-19T11:49:59.091Z,4.30
2023-02-19T11:52:28.233Z,4.10
2023-02-19T11:54:59.559Z,4.30
2023-02-19T11:57:21.419Z,2.70
2023-02-19T11:59:42.926Z,3.20
2023-02-19T12:02:18.970Z,3.60
2023-02-19T12:05:03.358Z,4.30
2023-02-19T12:07:31.015Z,4.30
2023-02-19T12:10:02.326Z,5.30
2023-02-19T12:12:33.575Z,3.50
2023-02-19T12:15:05.849Z,2.80
2023-02-19T12:17:32.024Z,3.40
2023-02-19T12:20:02.312Z,3.00
2023-02-19T12:22:33.365Z,3.70
2023-02-19T12:25:04.791Z,3.40
2023-02-19T12:27:30.321Z,3.60
2023-02-19T12:30:06.665Z,4.00
2023-02-19T12:32:49.477Z,3.60
2023-02-19T12:35:40.074Z,3.10
2023-02-19T12:38:03.435Z,3.00
2023-02-19T12:40:36.755Z,2.90
2023-02-19T12:43:05.408Z,2.60
2023-02-19T12:45:24.935Z,3.30
2023-02-19T12:47:44.566Z,4.70
2023-02-19T12:50:09.062Z,3.40
2023-02-19T12:52:26.006Z,3.30
2023-02-19T12:54:42.397Z,3.20
2023-02-19T12:57:00.190Z,3.90
2023-02-19T12:59:19.098Z,3.30
2023-02-19T13:01:35.302Z,3.30
2023-02-19T13:03:55.250Z,2.90
2023-02-19T13:06:19.518Z,3.50
2023-02-19T13:08:35.656Z,2.80
2023-02-19T13:10:53.123Z,2.60
2023-02-19T13:13:10.313Z,3.20
2023-02-19T13:15:29.102Z,2.70
2023-02-19T13:17:48.301Z,4.00
2023-02-19T13:20:07.021Z,3.20
2023-02-19T13:22:44.551Z,3.30
2023-02-19T13:24:58.959Z,3.80
2023-02-19T13:27:31.234Z,3.40
2023-02-19T13:30:10.382Z,3.00
2023-02-19T13:32:43.313Z,3.20
2023-02-19T13:37:16.043Z,3.10
2023-02-19T13:39:31.103Z,3.80
2023-02-19T13:41:52.720Z,2.30
2023-02-19T13:44:09.397Z,3.10
2023-02-19T13:46:23.402Z,3.20
2023-02-19T13:48:38.328Z,3.70
2023-02-19T13:50:51.730Z,3.50
2023-02-19T13:53:05.589Z,2.60
2023-02-19T13:55:57.239Z,2.80
2023-02-19T13:58:38.708Z,3.80
2023-02-19T14:01:02.491Z,3.40
2023-02-19T14:03:33.112Z,3.30
2023-02-19T14:06:07.356Z,3.40
2023-02-19T14:08:54.301Z,3.70
2023-02-19T14:11:09.311Z,2.90
2023-02-19T14:14:13.170Z,3.00
2023-02-19T14:18:51.557Z,2.90
2023-02-19T14:21:19.936Z,2.90
2023-02-19T14:23:33.776Z,2.20
2023-02-19T14:25:57.826Z,2.40
2023-02-19T14:28:17.911Z,2.40
2023-02-19T14:30:32.198Z,3.40
2023-02-19T14:32:51.043Z,3.10
2023-02-19T14:35:04.414Z,2.80
2023-02-19T14:37:24.564Z,3.00
2023-02-19T14:39:41.423Z,3.10
2023-02-19T14:41:59.628Z,3.00
2023-02-19T14:44:20.453Z,2.80
2023-02-19T14:46:36.803Z,2.20
2023-02-19T14:48:52.793Z,3.30
2023-02-19T14:51:11.331Z,3.60
2023-02-19T14:53:26.802Z,2.80
2023-02-19T14:55:43.764Z,2.90
2023-02-19T14:58:00.026Z,3.20
2023-02-19T15:00:29.805Z,2.80
2023-02-19T15:02:48.117Z,3.20
2023-02-19T15:05:02.481Z,2.90
2023-02-19T15:07:18.893Z,3.00
2023-02-19T15:09:40.352Z,3.40
2023-02-19T15:11:53.553Z,3.20
2023-02-19T15:14:08.587Z,3.90
2023-02-19T15:16:27.105Z,3.00
2023-02-19T15:18:43.253Z,3.50
2023-02-19T15:21:02.503Z,3.20
2023-02-19T15:23:22.653Z,3.30
2023-02-19T15:25:39.145Z,2.30
2023-02-19T15:27:53.087Z,2.10
2023-02-19T15:30:06.752Z,2.30
2023-02-19T15:32:27.397Z,2.70
2023-02-19T15:34:43.271Z,3.30
2023-02-19T15:37:04.599Z,2.70
2023-02-19T15:39:26.229Z,2.50
2023-02-19T15:41:41.630Z,4.40
2023-02-19T15:44:00.319Z,4.60
2023-02-19T15:46:20.689Z,2.80
2023-02-19T15:48:39.040Z,4.30
2023-02-19T15:50:56.516Z,4.10
2023-02-19T15:53:12.531Z,3.90
2023-02-19T15:55:39.921Z,4.80
2023-02-19T15:57:57.240Z,3.40
2023-02-19T16:00:18.294Z,4.20
2023-02-19T16:02:31.701Z,21.20
2023-02-19T16:04:47.053Z,8.30
2023-02-19T16:07:04.504Z,9.30
2023-02-19T16:09:32.128Z,5.30
2023-02-19T16:11:51.632Z,3.50
2023-02-19T16:14:27.040Z,4.00
2023-02-19T16:16:46.649Z,2.80
2023-02-19T16:19:00.643Z,5.50
2023-02-19T16:21:15.319Z,3.70
2023-02-19T16:23:28.862Z,4.10
2023-02-19T16:25:45.391Z,3.40
2023-02-19T16:28:01.264Z,3.30
2023-02-19T16:30:27.576Z,3.20
2023-02-19T16:32:40.921Z,4.60
2023-02-19T16:34:55.732Z,11.40
2023-02-19T16:37:22.200Z,10.40
2023-02-19T16:39:35.810Z,10.00
2023-02-19T16:42:20.861Z,6.20
2023-02-19T16:44:40.871Z,5.20
2023-02-19T16:47:11.307Z,5.80
2023-02-19T16:49:34.147Z,5.60
2023-02-19T16:51:47.688Z,6.60
2023-02-19T16:54:01.668Z,6.00
2023-02-19T16:56:24.109Z,6.20
2023-02-19T16:58:39.890Z,7.30
2023-02-19T17:00:56.419Z,13.10
2023-02-19T17:03:14.936Z,15.20
2023-02-19T17:05:29.938Z,14.00
2023-02-19T17:07:46.364Z,18.00
2023-02-19T17:10:06.858Z,17.50
2023-02-19T17:12:28.442Z,20.10
2023-02-19T17:14:46.470Z,24.00
2023-02-19T17:17:10.817Z,25.60
2023-02-19T17:19:26.588Z,19.60
2023-02-19T17:21:48.408Z,16.80
2023-02-19T17:24:05.079Z,16.50
2023-02-19T17:26:24.576Z,14.60
2023-02-19T17:28:41.546Z,14.80
2023-02-19T17:30:59.800Z,16.80
2023-02-19T17:33:19.927Z,17.60
2023-02-19T17:35:36.451Z,16.40
2023-02-19T17:37:53.262Z,21.50
2023-02-19T17:40:48.349Z,19.00
2023-02-19T17:43:01.379Z,12.90
2023-02-19T17:45:15.327Z,22.40
2023-02-19T17:47:29.045Z,20.10
2023-02-19T17:49:42.629Z,23.00
2023-02-19T17:51:56.224Z,18.10
2023-02-19T17:54:09.418Z,21.10
2023-02-19T17:56:27.358Z,20.10
2023-02-19T17:58:40.555Z,15.50
2023-02-19T18:00:56.993Z,12.70
2023-02-19T18:03:11.697Z,14.50
2023-02-19T18:05:25.789Z,14.40
2023-02-19T18:07:42.537Z,18.30
2023-02-19T18:09:56.428Z,19.50
2023-02-19T18:12:10.274Z,19.10
2023-02-19T18:14:28.640Z,17.40
2023-02-19T18:16:49.761Z,16.10
2023-02-19T18:19:03.831Z,16.10
2023-02-19T18:21:18.739Z,18.80
2023-02-19T18:23:32.495Z,15.30
2023-02-19T18:25:46.510Z,16.70
2023-02-19T18:28:01.151Z,17.40
2023-02-19T18:30:17.907Z,13.20
2023-02-19T18:32:31.770Z,15.40
2023-02-19T18:34:44.898Z,13.70
2023-02-19T18:36:58.199Z,14.20
2023-02-19T18:39:11.559Z,13.50
2023-02-19T18:41:25.711Z,16.30
2023-02-19T18:43:38.863Z,18.20
2023-02-19T18:45:52.143Z,15.00
2023-02-19T18:48:05.324Z,14.60
2023-02-19T18:50:19.453Z,17.00
2023-02-19T18:52:33.249Z,12.90
2023-02-19T18:54:46.399Z,14.10
2023-02-19T18:57:01.879Z,15.30
2023-02-19T18:59:16.810Z,15.50
2023-02-19T19:01:30.029Z,13.60
2023-02-19T19:03:43.390Z,14.40
2023-02-19T19:05:56.640Z,18.30
2023-02-19T19:08:10.138Z,17.80
2023-02-19T19:10:24.038Z,15.80
2023-02-19T19:12:37.478Z,15.50
2023-02-19T19:14:51.056Z,15.60
2023-02-19T19:17:05.332Z,17.10
2023-02-19T19:19:19.294Z,14.70
2023-02-19T19:21:32.636Z,14.00
2023-02-19T19:23:46.762Z,15.90
2023-02-19T19:26:00.420Z,14.90
2023-02-19T19:28:13.502Z,11.40
2023-02-19T19:30:28.163Z,12.00
2023-02-19T19:32:42.064Z,16.50
2023-02-19T19:35:01.445Z,11.60
2023-02-19T19:37:16.697Z,10.00
2023-02-19T19:39:30.442Z,15.00
2023-02-19T19:41:44.053Z,17.00
2023-02-19T19:43:57.134Z,16.10
2023-02-19T19:46:11.238Z,20.70
2023-02-19T19:48:24.342Z,13.00
2023-02-19T19:50:37.430Z,18.50
2023-02-19T19:52:51.087Z,14.40
2023-02-19T19:55:04.431Z,15.60
2023-02-19T19:57:19.535Z,15.90
2023-02-19T19:59:33.211Z,18.40
2023-02-19T20:01:54.304Z,18.60
2023-02-19T20:04:07.910Z,12.60
2023-02-19T20:06:31.034Z,16.90
2023-02-19T20:08:44.151Z,15.10
2023-02-19T20:10:57.800Z,17.40
2023-02-19T20:13:10.998Z,18.00
2023-02-19T20:15:29.140Z,8.10
2023-02-19T20:17:42.437Z,4.70
2023-02-19T20:19:55.568Z,11.30
2023-02-19T20:22:08.838Z,12.10
2023-02-19T20:24:25.269Z,16.30
2023-02-19T20:26:38.568Z,13.40
2023-02-19T20:28:51.658Z,9.10
2023-02-19T20:31:05.924Z,7.20
2023-02-19T20:33:19.974Z,6.50
2023-02-19T20:35:33.722Z,6.60
2023-02-19T20:37:49.349Z,5.40
2023-02-19T20:40:03.787Z,8.80
2023-02-19T20:42:18.134Z,13.60
2023-02-19T20:44:32.301Z,12.60
2023-02-19T20:46:50.763Z,9.40
2023-02-19T20:49:03.928Z,7.60
2023-02-19T20:51:17.477Z,12.70
2023-02-19T20:53:31.158Z,12.60
2023-02-19T20:55:46.298Z,8.50
2023-02-19T20:57:59.999Z,8.40
2023-02-19T21:00:16.817Z,6.30
2023-02-19T21:02:32.049Z,7.70
2023-02-19T21:04:45.570Z,9.00
2023-02-19T21:06:58.718Z,8.70
2023-02-19T21:09:12.009Z,9.60
2023-02-19T21:11:24.917Z,8.60
2023-02-19T21:13:38.481Z,10.50
2023-02-19T21:15:51.807Z,10.80
2023-02-19T21:18:06.179Z,12.20
2023-02-19T21:20:20.836Z,9.20
2023-02-19T21:22:33.951Z,8.50
2023-02-19T21:24:50.639Z,8.90
2023-02-19T21:27:03.570Z,7.80
2023-02-19T21:29:21.802Z,8.50
2023-02-19T21:31:42.708Z,4.50
2023-02-19T21:33:56.831Z,6.00
2023-02-19T21:36:12.002Z,8.30
2023-02-19T21:38:25.909Z,6.30
2023-02-19T21:40:39.500Z,6.40
2023-02-19T21:42:52.532Z,7.20
2023-02-19T21:45:06.412Z,7.30
2023-02-19T21:47:19.559Z,6.00
2023-02-19T21:49:32.708Z,5.70
2023-02-19T21:51:49.075Z,7.50
2023-02-19T21:54:05.913Z,5.20
2023-02-19T21:56:27.332Z,6.10
2023-02-19T21:58:40.497Z,8.20
2023-02-19T22:00:54.927Z,8.10
2023-02-19T22:03:08.586Z,7.00
2023-02-19T22:05:22.535Z,7.30
2023-02-19T22:07:35.844Z,9.20
2023-02-19T22:09:48.984Z,7.10
2023-02-19T22:12:01.963Z,9.00
2023-02-19T22:14:15.222Z,10.30
2023-02-19T22:16:29.879Z,9.20
2023-02-19T22:18:49.079Z,10.80
2023-02-19T22:21:02.124Z,11.60
2023-02-19T22:23:15.413Z,9.30
2023-02-19T22:25:28.957Z,8.70
2023-02-19T22:27:42.313Z,10.20
2023-02-19T22:29:55.673Z,12.00
2023-02-19T22:32:10.805Z,10.70
2023-02-19T22:34:25.436Z,10.00
2023-02-19T22:36:40.320Z,8.70
2023-02-19T22:38:54.102Z,8.50
2023-02-19T22:41:07.050Z,9.10
2023-02-19T22:43:23.003Z,8.80
2023-02-19T22:45:36.320Z,7.70
2023-02-19T22:47:50.450Z,7.30
2023-02-19T22:50:05.053Z,7.70
2023-02-19T22:52:18.794Z,8.00
2023-02-19T22:54:32.683Z,11.10
2023-02-19T22:56:45.858Z,11.10
2023-02-19T22:58:59.854Z,12.50
2023-02-19T23:01:14.086Z,11.10
2023-02-19T23:03:28.155Z,10.60
2023-02-19T23:05:41.279Z,12.80
2023-02-19T23:07:54.291Z,13.20
2023-02-19T23:10:07.549Z,13.00
2023-02-19T23:12:21.232Z,9.20
2023-02-19T23:14:34.140Z,11.20
2023-02-19T23:16:47.145Z,10.20
2023-02-19T23:19:00.720Z,10.80
2023-02-19T23:21:14.079Z,10.20
2023-02-19T23:23:27.044Z,7.00
2023-02-19T23:25:39.964Z,6.20
2023-02-19T23:27:53.894Z,3.60
2023-02-19T23:30:08.045Z,1.80
2023-02-19T23:32:22.232Z,2.10
2023-02-19T23:34:35.966Z,8.10
2023-02-19T23:36:50.479Z,15.80
2023-02-19T23:39:03.500Z,17.10
2023-02-19T23:41:18.806Z,17.20
2023-02-19T23:43:32.818Z,12.40
2023-02-19T23:45:46.289Z,10.70
2023-02-19T23:47:59.725Z,10.30
2023-02-19T23:50:14.625Z,5.40
2023-02-19T23:52:28.094Z,3.70
2023-02-19T23:54:41.714Z,5.60
2023-02-19T23:56:55.253Z,10.00
2023-02-19T23:59:08.333Z,8.40
